Time;durP1;ratioP1;P1;durP2;ratioP2;P2;SDS_P1;SDS_P2;PMS_P1;PMS_P2;Temp;Humidity;BMP_temperature;BMP_pressure;BME280_temperature;BME280_humidity;BME280_pressure;Samples;Min_cycle;Max_cycle;Signal;HPM_P1;HPM_P2
2023/03/26 00:01:55;;;;;;;5.88;0.77;;;6.80;99.90;;;;;;5031233;28;20026;-69
2023/03/26 00:04:21;;;;;;;6.05;0.82;;;6.80;99.90;;;;;;5034035;28;20025;-72
2023/03/26 00:06:47;;;;;;;5.55;1.00;;;6.70;99.90;;;;;;5028896;28;20363;-71
2023/03/26 00:09:14;;;;;;;2.00;0.57;;;6.80;99.90;;;;;;5037182;28;20218;-72
2023/03/26 00:11:41;;;;;;;2.38;0.90;;;6.80;99.90;;;;;;5038437;28;20416;-72
2023/03/26 00:14:08;;;;;;;3.42;1.05;;;6.80;99.90;;;;;;5046458;28;20386;-72
2023/03/26 00:16:37;;;;;;;4.47;1.02;;;6.80;99.90;;;;;;5034563;28;20037;-73
2023/03/26 00:19:02;;;;;;;3.03;0.75;;;6.70;99.90;;;;;;5043738;28;20037;-72
2023/03/26 00:21:29;;;;;;;6.50;1.08;;;6.70;99.90;;;;;;5035589;28;20049;-73
2023/03/26 00:24:03;;;;;;;4.30;1.15;;;6.60;99.90;;;;;;5033692;28;20083;-69
2023/03/26 00:26:30;;;;;;;5.90;1.15;;;6.40;99.90;;;;;;5033822;28;20052;-73
2023/03/26 00:28:58;;;;;;;7.32;1.10;;;6.40;99.90;;;;;;5039699;28;20037;-69
2023/03/26 00:31:25;;;;;;;6.28;1.27;;;6.30;99.90;;;;;;5028270;28;20025;-73
2023/03/26 00:33:57;;;;;;;8.20;1.20;;;6.30;99.90;;;;;;5039784;28;20078;-73
2023/03/26 00:36:24;;;;;;;2.58;0.93;;;6.20;99.90;;;;;;5042102;28;20052;-73
2023/03/26 00:38:51;;;;;;;5.75;1.30;;;6.10;99.90;;;;;;5042173;28;20037;-73
2023/03/26 00:41:24;;;;;;;7.05;1.20;;;6.10;99.90;;;;;;5028100;28;20049;-73
2023/03/26 00:43:54;;;;;;;8.43;1.30;;;6.10;99.90;;;;;;5047884;28;20114;-73
2023/03/26 00:46:21;;;;;;;8.27;2.22;;;6.10;99.90;;;;;;5029562;28;20025;-73
2023/03/26 00:48:46;;;;;;;5.70;1.40;;;6.10;99.90;;;;;;5036618;28;20036;-74
2023/03/26 00:51:14;;;;;;;6.35;1.15;;;6.10;99.90;;;;;;5027715;28;20029;-71
2023/03/26 00:53:41;;;;;;;7.00;1.95;;;6.10;99.90;;;;;;5022799;28;20040;-72
2023/03/26 00:56:11;;;;;;;6.65;1.45;;;6.10;99.90;;;;;;5034813;28;20383;-73
2023/03/26 00:58:36;;;;;;;10.93;1.65;;;6.20;99.90;;;;;;5038565;28;20052;-74
2023/03/26 01:01:06;;;;;;;4.30;1.27;;;6.20;99.90;;;;;;5030623;28;20477;-73
2023/03/26 01:03:34;;;;;;;5.27;1.50;;;6.10;99.90;;;;;;5046005;28;20539;-72
2023/03/26 01:06:03;;;;;;;3.70;1.30;;;6.10;99.90;;;;;;5029818;28;20757;-69
2023/03/26 01:08:32;;;;;;;8.07;1.17;;;6.10;99.90;;;;;;5044784;28;20029;-74
2023/03/26 01:11:05;;;;;;;5.32;1.30;;;6.10;99.90;;;;;;5036752;28;20045;-69
2023/03/26 01:13:37;;;;;;;7.63;1.73;;;6.00;99.90;;;;;;5043432;28;20501;-73
2023/03/26 01:16:08;;;;;;;4.35;1.30;;;6.00;99.90;;;;;;5030878;28;20033;-74
2023/03/26 01:18:39;;;;;;;5.05;1.38;;;6.00;99.90;;;;;;5046996;28;20028;-74
2023/03/26 01:21:08;;;;;;;5.72;1.50;;;6.00;99.90;;;;;;5037101;28;20095;-74
2023/03/26 01:23:47;;;;;;;5.45;1.30;;;6.00;99.90;;;;;;5043260;28;20069;-74
2023/03/26 01:26:36;;;;;;;4.33;1.47;;;6.00;99.90;;;;;;5041964;28;20083;-73
2023/03/26 01:29:07;;;;;;;7.32;1.23;;;6.00;99.90;;;;;;5034357;28;20033;-70
2023/03/26 01:31:42;;;;;;;5.68;1.58;;;5.90;99.90;;;;;;5040538;28;20118;-73
2023/03/26 01:34:20;;;;;;;7.15;1.55;;;5.90;99.90;;;;;;5025339;28;20091;-72
2023/03/26 01:36:55;;;;;;;7.70;1.60;;;5.80;99.90;;;;;;5039160;28;20065;-73
2023/03/26 01:39:32;;;;;;;7.38;1.70;;;5.90;99.90;;;;;;5036450;28;20497;-74
2023/03/26 01:42:07;;;;;;;4.07;1.73;;;5.90;99.90;;;;;;5031061;28;20033;-73
2023/03/26 01:45:20;;;;;;;6.25;1.60;;;5.90;99.90;;;;;;5040524;28;20026;-74
2023/03/26 01:47:46;;;;;;;6.85;1.52;;;5.90;99.90;;;;;;4989395;28;20039;-74
2023/03/26 01:50:12;;;;;;;6.07;1.90;;;5.90;99.90;;;;;;4990245;28;20038;-73
2023/03/26 01:52:38;;;;;;;8.35;1.60;;;6.00;99.90;;;;;;4985322;28;20054;-73
2023/03/26 01:55:10;;;;;;;7.25;1.77;;;6.00;99.90;;;;;;4987256;28;20034;-73
2023/03/26 01:57:39;;;;;;;9.38;1.48;;;6.10;99.90;;;;;;4979943;28;20074;-74
2023/03/26 02:00:19;;;;;;;5.43;1.67;;;6.10;99.90;;;;;;4998682;28;20038;-73
2023/03/26 02:03:00;;;;;;;8.00;1.50;;;6.00;99.90;;;;;;4996962;28;20038;-74
2023/03/26 02:05:39;;;;;;;3.70;1.15;;;6.00;99.90;;;;;;4988039;28;20031;-75
2023/03/26 02:08:15;;;;;;;5.22;1.40;;;6.10;99.90;;;;;;5002973;28;20399;-74
2023/03/26 02:10:47;;;;;;;3.50;1.35;;;6.10;99.90;;;;;;4976360;28;20038;-74
2023/03/26 02:13:14;;;;;;;3.28;1.30;;;6.10;99.90;;;;;;4985394;28;20040;-73
2023/03/26 02:15:40;;;;;;;8.35;1.33;;;6.10;99.90;;;;;;4991164;28;20102;-72
2023/03/26 02:18:09;;;;;;;5.22;1.50;;;6.10;99.90;;;;;;5004298;28;20033;-73
2023/03/26 02:20:36;;;;;;;9.07;1.38;;;6.10;99.90;;;;;;5037038;28;20099;-72
2023/03/26 02:23:01;;;;;;;6.65;1.30;;;6.10;99.90;;;;;;5040236;28;20037;-69
2023/03/26 02:25:30;;;;;;;8.82;1.33;;;6.10;99.90;;;;;;5040876;28;20424;-73
2023/03/26 02:27:55;;;;;;;6.85;1.60;;;6.10;99.90;;;;;;5031825;28;20327;-74
2023/03/26 02:30:24;;;;;;;7.50;1.27;;;6.10;99.90;;;;;;5031902;28;20030;-73
2023/03/26 02:32:52;;;;;;;5.78;1.38;;;6.10;99.90;;;;;;5036262;28;20389;-73
2023/03/26 02:35:20;;;;;;;3.70;1.30;;;6.00;99.90;;;;;;5037751;28;20032;-72
2023/03/26 02:37:49;;;;;;;6.30;1.48;;;6.00;99.90;;;;;;5030793;28;20033;-73
2023/03/26 02:40:16;;;;;;;6.38;1.60;;;6.00;99.90;;;;;;5031037;28;20053;-73
2023/03/26 02:42:42;;;;;;;3.90;1.35;;;5.90;99.90;;;;;;5032179;28;20034;-74
2023/03/26 02:45:08;;;;;;;4.65;1.50;;;5.90;99.90;;;;;;5037400;28;20040;-72
2023/03/26 02:47:36;;;;;;;7.03;1.30;;;5.90;99.90;;;;;;5044888;28;20021;-74
2023/03/26 02:50:03;;;;;;;8.32;1.20;;;5.80;99.90;;;;;;5044568;28;20045;-71
2023/03/26 02:52:32;;;;;;;7.45;1.58;;;5.80;99.90;;;;;;5037730;28;20064;-73
2023/03/26 02:54:58;;;;;;;10.13;1.58;;;5.80;99.90;;;;;;5038670;28;20036;-72
2023/03/26 02:57:24;;;;;;;5.85;1.65;;;5.80;99.90;;;;;;5027603;28;20106;-73
2023/03/26 02:59:51;;;;;;;10.32;1.75;;;5.70;99.90;;;;;;5029081;28;20406;-73
2023/03/26 03:02:18;;;;;;;8.05;2.38;;;5.70;99.90;;;;;;5035665;28;20087;-73
2023/03/26 03:04:43;;;;;;;6.32;1.65;;;5.80;99.90;;;;;;5037481;28;20124;-73
2023/03/26 03:07:13;;;;;;;5.80;1.40;;;5.80;99.90;;;;;;5047685;28;20125;-74
2023/03/26 03:09:39;;;;;;;8.88;1.40;;;5.80;99.90;;;;;;5040510;28;20040;-74
2023/03/26 03:12:04;;;;;;;8.40;1.33;;;5.90;99.90;;;;;;5029177;28;20029;-69
2023/03/26 03:14:30;;;;;;;8.07;1.80;;;5.80;99.90;;;;;;5042448;28;20481;-73
2023/03/26 03:16:56;;;;;;;7.00;1.38;;;5.80;99.90;;;;;;5036628;28;20086;-74
2023/03/26 03:19:22;;;;;;;8.48;1.67;;;5.80;99.90;;;;;;5037816;28;20052;-73
2023/03/26 03:21:47;;;;;;;7.30;1.65;;;5.80;99.90;;;;;;5033846;28;20079;-74
2023/03/26 03:24:17;;;;;;;4.32;1.67;;;5.90;99.90;;;;;;5046922;28;20068;-73
2023/03/26 03:26:44;;;;;;;10.02;1.77;;;5.90;99.90;;;;;;5041326;28;20034;-74
2023/03/26 03:29:11;;;;;;;8.93;1.67;;;5.90;99.90;;;;;;5028596;28;20037;-73
2023/03/26 03:31:37;;;;;;;6.07;1.30;;;5.90;99.90;;;;;;5030026;28;20026;-74
2023/03/26 03:34:03;;;;;;;7.20;1.33;;;5.90;99.90;;;;;;5028861;28;20033;-72
2023/03/26 03:36:29;;;;;;;7.07;1.55;;;5.90;99.90;;;;;;5040494;28;20028;-74
2023/03/26 03:39:01;;;;;;;8.98;1.30;;;5.90;99.90;;;;;;5032365;28;20037;-74
2023/03/26 03:41:27;;;;;;;3.22;1.55;;;5.90;99.90;;;;;;5020150;28;20060;-73
2023/03/26 03:43:52;;;;;;;6.63;1.30;;;5.90;99.90;;;;;;5028766;28;20374;-73
2023/03/26 03:46:18;;;;;;;5.70;1.30;;;5.90;99.90;;;;;;5026256;28;20041;-73
2023/03/26 03:48:48;;;;;;;6.13;1.33;;;6.00;99.90;;;;;;5035891;28;20160;-74
2023/03/26 03:51:17;;;;;;;3.47;1.00;;;6.00;99.90;;;;;;5035419;28;20504;-74
2023/03/26 03:53:44;;;;;;;6.95;1.33;;;6.00;99.90;;;;;;5039095;28;20040;-74
2023/03/26 03:56:12;;;;;;;5.75;1.27;;;6.00;99.90;;;;;;5045370;28;20017;-70
2023/03/26 03:58:39;;;;;;;6.78;1.30;;;6.00;99.90;;;;;;5040071;28;20029;-73
2023/03/26 04:01:05;;;;;;;3.42;1.33;;;6.00;99.90;;;;;;5035220;28;20483;-72
2023/03/26 04:03:37;;;;;;;5.75;1.40;;;6.00;99.90;;;;;;5034627;28;20029;-72
2023/03/26 04:06:06;;;;;;;9.30;2.58;;;5.90;99.90;;;;;;5036668;28;20044;-74
2023/03/26 04:08:32;;;;;;;6.45;1.35;;;6.00;99.90;;;;;;5034909;28;20053;-74
2023/03/26 04:10:58;;;;;;;9.15;1.90;;;5.90;99.90;;;;;;5033625;28;20120;-73
2023/03/26 04:13:23;;;;;;;5.93;1.15;;;5.90;99.90;;;;;;5027370;28;20053;-74
2023/03/26 04:15:49;;;;;;;6.13;1.20;;;5.90;99.90;;;;;;5027135;28;20102;-73
2023/03/26 04:18:15;;;;;;;6.95;1.65;;;5.90;99.90;;;;;;5035929;28;20033;-73
2023/03/26 04:20:45;;;;;;;6.57;1.50;;;5.90;99.90;;;;;;5038293;28;20079;-72
2023/03/26 04:23:13;;;;;;;;;;;5.90;99.90;;;;;;5047738;28;20049;-70
2023/03/26 04:26:02;;;;;;;7.28;1.52;;;5.90;99.90;;;;;;5027669;28;19974;-73
2023/03/26 04:28:30;;;;;;;6.50;1.63;;;5.90;99.90;;;;;;5034641;28;20287;-73
2023/03/26 04:30:59;;;;;;;6.72;1.30;;;5.80;99.90;;;;;;5030288;28;20110;-73
2023/03/26 04:33:28;;;;;;;3.92;1.20;;;5.80;99.90;;;;;;5034964;28;20029;-74
2023/03/26 04:35:55;;;;;;;5.68;1.30;;;5.80;99.90;;;;;;5048963;28;20123;-73
2023/03/26 04:38:21;;;;;;;6.90;1.30;;;5.80;99.90;;;;;;5046439;28;20139;-73
2023/03/26 04:40:47;;;;;;;5.97;1.40;;;5.80;99.90;;;;;;5036480;28;20128;-72
2023/03/26 04:43:17;;;;;;;6.75;1.63;;;5.80;99.90;;;;;;5036197;28;20037;-70
2023/03/26 04:45:44;;;;;;;5.97;1.65;;;5.80;99.90;;;;;;5034922;28;20032;-73
2023/03/26 04:48:13;;;;;;;3.88;1.30;;;5.80;99.90;;;;;;5042119;28;20111;-70
2023/03/26 04:50:41;;;;;;;4.72;1.70;;;5.80;99.90;;;;;;5032320;28;20075;-73
2023/03/26 04:53:13;;;;;;;8.30;1.77;;;5.80;99.90;;;;;;5027842;28;20497;-73
2023/03/26 04:55:57;;;;;;;13.10;2.05;;;5.80;99.90;;;;;;5033084;28;20021;-74
2023/03/26 04:58:29;;;;;;;7.82;2.00;;;5.80;99.90;;;;;;5040276;28;20552;-72
2023/03/26 05:00:56;;;;;;;10.77;1.90;;;5.70;99.90;;;;;;5027609;28;20108;-73
2023/03/26 05:03:21;;;;;;;6.13;1.80;;;5.80;99.90;;;;;;5028847;28;20033;-72
2023/03/26 05:05:50;;;;;;;5.78;2.17;;;5.70;99.90;;;;;;5019242;28;20033;-69
2023/03/26 05:08:15;;;;;;;7.35;2.58;;;5.70;99.90;;;;;;5043737;28;20029;-72
2023/03/26 05:10:41;;;;;;;5.75;1.48;;;5.70;99.90;;;;;;5024110;28;20096;-72
2023/03/26 05:13:07;;;;;;;3.88;1.92;;;5.70;99.90;;;;;;5036535;28;20402;-72
2023/03/26 05:15:32;;;;;;;6.38;1.65;;;5.70;99.90;;;;;;5027718;28;20030;-73
2023/03/26 05:17:58;;;;;;;6.28;1.65;;;5.80;99.90;;;;;;5035228;28;20036;-73
2023/03/26 05:20:27;;;;;;;6.30;1.90;;;5.80;99.90;;;;;;5027661;28;20050;-73
2023/03/26 05:22:52;;;;;;;6.55;1.58;;;5.80;99.90;;;;;;5030102;28;20037;-72
2023/03/26 05:25:18;;;;;;;7.88;1.52;;;5.70;99.90;;;;;;5035423;28;20519;-73
2023/03/26 05:27:44;;;;;;;7.22;2.08;;;5.70;99.90;;;;;;5030765;28;20029;-73
2023/03/26 05:30:17;;;;;;;3.97;1.75;;;5.70;99.90;;;;;;5030200;28;20366;-73
2023/03/26 05:32:43;;;;;;;7.63;2.15;;;5.70;99.90;;;;;;5038160;28;20037;-72
2023/03/26 05:35:11;;;;;;;9.20;2.80;;;5.70;99.90;;;;;;5027765;28;20033;-73
2023/03/26 05:37:43;;;;;;;6.40;2.78;;;5.70;99.90;;;;;;5035961;28;20037;-72
2023/03/26 05:40:10;;;;;;;9.93;3.35;;;5.80;99.90;;;;;;5038832;28;20091;-72
2023/03/26 05:42:36;;;;;;;6.30;2.60;;;5.80;99.90;;;;;;5028360;28;20140;-72
2023/03/26 05:45:02;;;;;;;11.85;2.92;;;5.80;99.90;;;;;;5030912;28;20124;-72
2023/03/26 05:47:28;;;;;;;9.90;3.13;;;5.80;99.90;;;;;;5031223;28;20202;-72
2023/03/26 05:49:56;;;;;;;8.88;2.30;;;5.80;99.90;;;;;;5033139;28;20052;-70
2023/03/26 05:52:22;;;;;;;5.90;2.25;;;5.80;99.90;;;;;;5044841;28;20037;-72
2023/03/26 05:54:47;;;;;;;10.55;2.00;;;5.70;99.90;;;;;;5036383;28;20469;-72
2023/03/26 05:57:17;;;;;;;7.38;1.80;;;5.80;99.90;;;;;;5026109;28;20041;-70
2023/03/26 05:59:43;;;;;;;8.85;1.80;;;5.80;99.90;;;;;;5038558;28;20038;-72
2023/03/26 06:02:09;;;;;;;9.73;1.67;;;5.90;99.90;;;;;;5038375;28;20386;-72
2023/03/26 06:04:39;;;;;;;4.57;1.60;;;5.90;99.90;;;;;;5028957;28;20022;-73
2023/03/26 06:07:09;;;;;;;8.27;1.23;;;5.80;99.90;;;;;;5030723;28;20107;-73
2023/03/26 06:09:38;;;;;;;7.97;1.30;;;5.90;99.90;;;;;;5033759;28;20048;-72
2023/03/26 06:12:08;;;;;;;11.35;1.80;;;6.00;99.90;;;;;;5026913;28;20064;-72
2023/03/26 06:14:35;;;;;;;9.85;1.45;;;6.10;99.90;;;;;;5028060;28;20888;-72
2023/03/26 06:17:01;;;;;;;8.73;1.95;;;6.10;99.90;;;;;;5023778;28;20117;-72
2023/03/26 06:19:26;;;;;;;9.90;1.75;;;6.20;99.90;;;;;;5034485;28;20146;-72
2023/03/26 06:21:52;;;;;;;9.00;1.75;;;6.30;99.90;;;;;;5030485;28;20049;-72
2023/03/26 06:24:18;;;;;;;12.35;3.42;;;6.40;99.90;;;;;;5037983;28;20072;-70
2023/03/26 06:26:45;;;;;;;7.28;1.70;;;6.40;99.90;;;;;;5029811;28;20371;-71
2023/03/26 06:29:12;;;;;;;20.15;7.20;;;6.50;99.90;;;;;;5032776;28;20036;-71
2023/03/26 06:31:37;;;;;;;13.77;3.45;;;6.60;99.90;;;;;;5026617;28;20535;-72
2023/03/26 06:34:03;;;;;;;12.38;2.00;;;6.60;99.90;;;;;;5038941;28;20037;-72
2023/03/26 06:36:28;;;;;;;21.30;5.80;;;6.70;99.90;;;;;;5025361;28;20118;-72
2023/03/26 06:38:54;;;;;;;12.48;2.88;;;6.70;99.90;;;;;;5045894;28;20033;-72
2023/03/26 06:41:20;;;;;;;20.40;5.55;;;6.70;99.90;;;;;;5031952;28;20033;-70
2023/03/26 06:43:45;;;;;;;126.20;42.65;;;6.70;99.90;;;;;;5033817;28;20508;-72
2023/03/26 06:46:12;;;;;;;14.27;4.90;;;6.70;99.90;;;;;;5029553;28;20095;-72
2023/03/26 06:48:39;;;;;;;9.90;2.05;;;6.70;99.90;;;;;;5022981;28;20103;-72
2023/03/26 06:51:05;;;;;;;9.80;1.95;;;6.60;99.90;;;;;;5031775;28;20071;-73
2023/03/26 06:53:30;;;;;;;11.95;1.75;;;6.60;99.90;;;;;;5028669;28;20455;-73
2023/03/26 06:55:56;;;;;;;5.80;1.50;;;6.60;99.90;;;;;;5032992;28;20018;-72
2023/03/26 06:58:21;;;;;;;6.47;1.58;;;6.70;99.90;;;;;;5033565;28;20445;-71
2023/03/26 07:00:51;;;;;;;7.88;1.67;;;6.70;99.90;;;;;;5035927;28;20600;-72
2023/03/26 07:03:16;;;;;;;9.00;1.55;;;6.70;99.90;;;;;;5029628;28;20041;-71
2023/03/26 07:05:42;;;;;;;7.88;1.77;;;6.70;99.90;;;;;;5020001;28;20076;-73
2023/03/26 07:08:08;;;;;;;10.48;1.42;;;6.70;99.90;;;;;;5029078;28;20462;-71
2023/03/26 07:10:33;;;;;;;5.60;1.67;;;6.70;99.90;;;;;;5011273;28;20445;-72
2023/03/26 07:12:59;;;;;;;4.63;1.20;;;6.70;99.90;;;;;;5029455;28;20036;-72
2023/03/26 07:15:27;;;;;;;8.35;1.40;;;6.70;99.90;;;;;;5038223;28;20032;-73
2023/03/26 07:17:53;;;;;;;8.23;1.67;;;6.70;99.90;;;;;;5035468;28;20184;-72
2023/03/26 07:20:19;;;;;;;10.02;1.90;;;6.70;99.90;;;;;;5031388;28;20553;-70
2023/03/26 07:22:45;;;;;;;9.20;2.00;;;6.80;99.90;;;;;;5042594;28;20037;-73
2023/03/26 07:25:12;;;;;;;6.25;1.60;;;6.80;99.90;;;;;;5035235;28;20043;-72
2023/03/26 07:27:56;;;;;;;6.35;1.50;;;6.80;99.90;;;;;;5025589;28;21016;-73
2023/03/26 07:30:54;;;;;;;8.75;1.50;;;6.70;99.90;;;;;;5020367;28;20059;-70
2023/03/26 07:33:28;;;;;;;7.72;1.58;;;6.70;99.90;;;;;;5028538;28;20025;-70
2023/03/26 07:36:17;;;;;;;13.15;3.65;;;6.70;99.90;;;;;;5034054;28;20029;-72
2023/03/26 07:39:10;;;;;;;10.90;3.42;;;6.70;99.90;;;;;;5024191;28;20284;-71
2023/03/26 07:41:49;;;;;;;13.20;2.53;;;6.70;99.90;;;;;;5004152;28;20061;-71
2023/03/26 07:44:39;;;;;;;7.45;2.45;;;6.70;99.90;;;;;;5036477;28;20029;-72
2023/03/26 07:47:38;;;;;;;9.77;2.03;;;6.70;99.90;;;;;;5013506;28;20026;-71
2023/03/26 07:50:04;;;;;;;9.55;1.85;;;6.70;99.90;;;;;;5017814;28;20052;-71
2023/03/26 07:52:30;;;;;;;9.05;2.22;;;6.70;99.90;;;;;;5018023;28;20068;-71
2023/03/26 07:54:56;;;;;;;7.75;2.20;;;6.80;99.90;;;;;;5019930;28;20069;-71
2023/03/26 07:57:37;;;;;;;8.90;2.50;;;6.80;99.90;;;;;;5028057;28;20038;-70
2023/03/26 08:00:21;;;;;;;8.02;1.77;;;6.80;99.90;;;;;;5024390;28;20080;-71
2023/03/26 08:02:58;;;;;;;7.03;2.15;;;6.80;99.90;;;;;;5032765;28;20099;-71
2023/03/26 08:05:49;;;;;;;9.32;2.55;;;6.90;99.90;;;;;;5034918;28;20064;-70
2023/03/26 08:08:34;;;;;;;10.95;2.78;;;7.00;99.90;;;;;;5036668;28;20037;-71
2023/03/26 08:11:10;;;;;;;11.75;3.42;;;7.00;99.90;;;;;;5032328;28;20052;-71
2023/03/26 08:14:03;;;;;;;12.48;2.40;;;7.10;99.90;;;;;;5030042;28;20037;-71
2023/03/26 08:16:47;;;;;;;15.20;2.67;;;7.10;99.90;;;;;;5028409;28;20033;-71
2023/03/26 08:19:37;;;;;;;11.35;2.85;;;7.10;99.90;;;;;;5030801;28;20029;-71
2023/03/26 08:22:14;;;;;;;8.30;2.25;;;7.10;99.90;;;;;;5026574;28;20042;-70
2023/03/26 08:24:56;;;;;;;6.72;1.60;;;7.20;99.90;;;;;;5040809;28;20037;-71
2023/03/26 08:27:38;;;;;;;11.45;1.98;;;7.20;99.90;;;;;;5048597;28;20416;-71
2023/03/26 08:30:18;;;;;;;5.82;1.55;;;7.20;99.90;;;;;;5038807;28;20112;-71
2023/03/26 08:32:53;;;;;;;10.35;2.05;;;7.10;99.90;;;;;;5047014;28;20082;-71
2023/03/26 08:35:19;;;;;;;9.13;2.00;;;7.10;99.90;;;;;;5042304;28;20104;-72
2023/03/26 08:37:44;;;;;;;8.75;2.10;;;7.00;99.90;;;;;;5039941;28;20609;-72
2023/03/26 08:40:11;;;;;;;9.18;2.63;;;7.00;99.90;;;;;;5024028;28;20034;-72
2023/03/26 08:43:01;;;;;;;9.60;2.67;;;7.00;99.90;;;;;;5032573;28;20406;-72
2023/03/26 08:46:01;;;;;;;4.80;2.20;;;7.00;99.90;;;;;;5036896;28;20025;-71
2023/03/26 08:48:39;;;;;;;12.53;3.40;;;7.00;99.90;;;;;;5035288;28;20462;-71
2023/03/26 08:51:32;;;;;;;9.95;2.85;;;6.90;99.90;;;;;;5039836;28;20493;-72
2023/03/26 08:54:19;;;;;;;10.38;3.30;;;6.90;99.90;;;;;;5035223;28;20033;-71
2023/03/26 08:56:55;;;;;;;12.00;2.92;;;6.80;99.90;;;;;;5032205;28;20592;-71
2023/03/26 08:59:55;;;;;;;7.07;2.80;;;6.70;99.90;;;;;;5030037;28;20025;-71
2023/03/26 09:02:39;;;;;;;13.68;4.13;;;6.70;99.90;;;;;;5030918;28;20044;-72
2023/03/26 09:05:29;;;;;;;7.05;2.80;;;6.70;99.90;;;;;;5038254;28;20469;-71
2023/03/26 09:08:11;;;;;;;5.13;2.13;;;6.80;99.90;;;;;;5023659;28;20106;-71
2023/03/26 09:10:58;;;;;;;10.70;3.95;;;6.70;99.90;;;;;;5026275;28;20125;-72
2023/03/26 09:13:47;;;;;;;12.27;4.20;;;6.80;99.90;;;;;;5024826;28;20022;-71
2023/03/26 09:16:22;;;;;;;16.60;5.15;;;6.90;99.90;;;;;;5009051;28;20056;-72
2023/03/26 09:19:49;;;;;;;11.00;5.72;;;7.00;99.90;;;;;;5031631;28;20644;-72
2023/03/26 09:22:46;;;;;;;9.20;3.67;;;7.10;99.90;;;;;;4964194;28;20432;-72
2023/03/26 09:25:24;;;;;;;6.07;2.50;;;7.10;99.90;;;;;;5018830;28;20078;-71
2023/03/26 09:28:23;;;;;;;7.25;2.88;;;7.10;99.90;;;;;;5030988;28;20025;-71
2023/03/26 09:30:57;;;;;;;9.75;2.60;;;7.10;99.90;;;;;;5025669;28;20029;-72
2023/03/26 09:33:39;;;;;;;6.90;2.35;;;7.10;99.90;;;;;;5039339;28;20036;-71
2023/03/26 09:36:31;;;;;;;13.02;2.83;;;7.20;99.90;;;;;;5030576;28;20033;-72
2023/03/26 09:39:15;;;;;;;8.90;2.75;;;7.30;99.90;;;;;;5028478;28;20029;-71
2023/03/26 09:42:08;;;;;;;11.50;2.35;;;7.20;99.90;;;;;;5035245;28;20052;-71
2023/03/26 09:44:58;;;;;;;8.45;2.15;;;7.20;99.90;;;;;;5017900;28;20091;-71
2023/03/26 09:47:26;;;;;;;6.75;2.20;;;7.30;99.90;;;;;;5027411;28;20026;-71
2023/03/26 09:50:10;;;;;;;6.22;2.22;;;7.30;99.90;;;;;;5036218;28;20046;-72
2023/03/26 09:52:55;;;;;;;7.82;2.30;;;7.40;99.90;;;;;;5027025;28;20103;-70
2023/03/26 09:55:43;;;;;;;6.82;2.22;;;7.60;99.90;;;;;;5026272;28;20109;-71
2023/03/26 09:58:36;;;;;;;5.78;1.95;;;7.70;99.90;;;;;;5029707;28;20029;-71
2023/03/26 10:01:26;;;;;;;8.35;1.95;;;7.80;99.90;;;;;;5041262;28;20397;-71
2023/03/26 10:04:10;;;;;;;5.43;1.98;;;8.10;99.90;;;;;;5032710;28;20033;-71
2023/03/26 10:07:08;;;;;;;5.63;1.92;;;8.40;99.90;;;;;;5029338;28;20037;-71
2023/03/26 10:09:50;;;;;;;5.90;1.77;;;8.40;99.90;;;;;;5038041;28;20486;-71
2023/03/26 10:12:23;;;;;;;6.68;1.95;;;8.70;99.90;;;;;;5028907;28;20469;-71
2023/03/26 10:15:21;;;;;;;4.13;1.60;;;9.10;99.90;;;;;;5037513;28;20108;-71
2023/03/26 10:18:04;;;;;;;5.63;1.80;;;9.40;99.90;;;;;;5014542;28;20532;-71
2023/03/26 10:20:54;;;;;;;4.93;1.73;;;9.40;99.90;;;;;;5026210;28;20132;-70
2023/03/26 10:23:38;;;;;;;7.25;1.83;;;9.30;99.90;;;;;;5041399;28;20044;-71
2023/03/26 10:26:45;;;;;;;5.82;1.88;;;9.60;99.90;;;;;;5041263;28;20056;-71
2023/03/26 10:29:37;;;;;;;6.00;1.67;;;9.60;99.90;;;;;;5007854;28;20045;-71
2023/03/26 10:32:36;;;;;;;5.22;1.63;;;9.80;99.90;;;;;;5033026;28;20036;-71
2023/03/26 10:35:08;;;;;;;3.25;1.10;;;9.70;99.90;;;;;;5025733;28;20044;-71
2023/03/26 10:37:46;;;;;;;2.78;1.33;;;9.90;99.90;;;;;;5028876;28;20041;-70
2023/03/26 10:40:45;;;;;;;3.95;1.65;;;10.00;99.90;;;;;;5030934;28;20112;-72
2023/03/26 10:43:22;;;;;;;7.22;1.50;;;9.80;99.90;;;;;;5044866;28;20032;-72
2023/03/26 10:45:48;;;;;;;6.85;1.88;;;9.50;99.90;;;;;;5039304;28;20044;-71
2023/03/26 10:48:48;;;;;;;3.67;1.75;;;9.40;99.90;;;;;;5043352;28;20331;-71
2023/03/26 10:51:19;;;;;;;4.45;1.42;;;9.30;99.90;;;;;;5026208;28;20109;-71
2023/03/26 10:53:59;;;;;;;4.35;1.38;;;9.20;99.90;;;;;;5032681;28;20029;-73
2023/03/26 10:56:44;;;;;;;6.78;1.60;;;9.20;99.90;;;;;;5025363;28;20040;-72
2023/03/26 10:59:15;;;;;;;4.22;1.30;;;9.40;99.90;;;;;;5031161;28;20119;-73
2023/03/26 11:02:16;;;;;;;3.30;1.25;;;9.50;99.90;;;;;;5026414;28;20148;-73
2023/03/26 11:04:49;;;;;;;;;;;9.70;99.90;;;;;;5018414;28;20037;-73
2023/03/26 11:07:42;;;;;;;2.10;0.82;;;9.80;99.90;;;;;;5033091;28;19952;-74
2023/03/26 11:10:15;;;;;;;2.88;1.13;;;9.80;99.90;;;;;;5037113;28;20033;-73
2023/03/26 11:12:49;;;;;;;2.88;0.88;;;9.90;99.90;;;;;;5036990;28;20040;-72
2023/03/26 11:15:24;;;;;;;2.67;0.98;;;9.90;99.90;;;;;;5034175;28;20504;-74
2023/03/26 11:18:17;;;;;;;5.15;1.20;;;10.40;99.90;;;;;;5027342;28;20032;-73
2023/03/26 11:20:56;;;;;;;4.22;1.20;;;10.60;99.90;;;;;;5027362;28;20045;-73
2023/03/26 11:23:34;;;;;;;3.03;1.30;;;10.40;99.90;;;;;;5033000;28;20042;-72
2023/03/26 11:26:41;;;;;;;7.28;1.35;;;10.10;99.90;;;;;;5035520;28;20032;-73
2023/03/26 11:29:37;;;;;;;6.55;1.60;;;10.10;99.90;;;;;;5032986;28;20127;-72
2023/03/26 11:32:39;;;;;;;4.10;1.27;;;9.70;99.90;;;;;;5036812;28;20056;-70
2023/03/26 11:35:20;;;;;;;2.17;1.05;;;9.40;99.90;;;;;;5023297;28;20042;-71
2023/03/26 11:37:52;;;;;;;3.88;1.10;;;9.30;99.90;;;;;;5028234;28;20025;-73
2023/03/26 11:40:28;;;;;;;2.33;0.93;;;9.40;99.90;;;;;;5033282;28;20028;-72
2023/03/26 11:43:06;;;;;;;4.25;1.50;;;9.50;99.90;;;;;;5032918;28;20033;-73
2023/03/26 11:45:36;;;;;;;5.45;1.52;;;9.70;99.90;;;;;;5038465;28;20092;-72
2023/03/26 11:48:17;;;;;;;5.75;1.73;;;10.20;99.90;;;;;;5033340;28;20101;-73
2023/03/26 11:50:52;;;;;;;3.17;1.55;;;11.00;99.90;;;;;;5036138;28;20506;-72
2023/03/26 11:53:21;;;;;;;4.07;1.45;;;11.60;99.90;;;;;;5041609;28;20052;-73
2023/03/26 11:56:02;;;;;;;2.90;1.13;;;11.80;99.90;;;;;;5029387;28;20029;-73
2023/03/26 11:58:52;;;;;;;5.57;0.93;;;11.70;99.90;;;;;;5031855;28;20108;-72
2023/03/26 12:01:31;;;;;;;2.25;0.85;;;11.50;99.90;;;;;;5037144;28;20037;-73
2023/03/26 12:04:12;;;;;;;2.90;0.88;;;11.60;99.90;;;;;;5020814;28;20032;-73
2023/03/26 12:06:38;;;;;;;2.88;0.98;;;11.30;99.90;;;;;;5034167;28;20109;-71
2023/03/26 12:09:14;;;;;;;2.80;0.73;;;11.40;99.90;;;;;;5033222;28;20087;-73
2023/03/26 12:11:40;;;;;;;4.88;1.00;;;11.60;99.90;;;;;;5031305;28;20118;-73
2023/03/26 12:14:06;;;;;;;3.60;0.88;;;11.60;99.90;;;;;;5029748;28;20127;-73
2023/03/26 12:16:33;;;;;;;6.72;1.05;;;12.00;99.90;;;;;;5026313;28;20044;-72
2023/03/26 12:19:05;;;;;;;2.88;1.02;;;12.40;99.90;;;;;;5026027;28;20041;-73
2023/03/26 12:21:48;;;;;;;3.72;0.90;;;12.30;99.90;;;;;;5039559;28;20473;-72
2023/03/26 12:24:34;;;;;;;3.15;0.82;;;12.20;99.90;;;;;;5028129;28;20426;-72
2023/03/26 12:27:19;;;;;;;3.40;0.98;;;12.10;99.90;;;;;;5015934;28;20034;-72
2023/03/26 12:29:50;;;;;;;2.85;1.00;;;12.00;99.90;;;;;;5034625;28;20047;-72
2023/03/26 12:32:16;;;;;;;3.95;1.10;;;12.10;99.90;;;;;;5045811;28;20025;-72
2023/03/26 12:34:42;;;;;;;1.40;0.47;;;12.50;99.90;;;;;;5034519;28;20090;-72
2023/03/26 12:37:39;;;;;;;3.13;0.50;;;12.80;99.90;;;;;;5042587;28;20032;-73
2023/03/26 12:40:26;;;;;;;1.67;0.50;;;12.20;99.90;;;;;;5041292;28;20423;-72
2023/03/26 12:42:54;;;;;;;3.90;0.60;;;11.80;99.90;;;;;;5031943;28;20025;-71
2023/03/26 12:45:28;;;;;;;3.90;0.50;;;11.50;99.90;;;;;;5039796;28;20032;-71
2023/03/26 12:47:56;;;;;;;2.40;0.50;;;11.40;99.90;;;;;;5031706;28;20033;-71
2023/03/26 12:50:35;;;;;;;1.92;0.60;;;11.20;99.90;;;;;;5048129;28;20049;-72
2023/03/26 12:53:44;;;;;;;2.33;0.68;;;11.10;99.90;;;;;;5039490;28;20029;-71
2023/03/26 12:56:21;;;;;;;1.27;0.50;;;11.00;99.90;;;;;;5043282;28;20033;-71
2023/03/26 12:58:53;;;;;;;3.22;0.60;;;11.00;99.90;;;;;;5048444;28;20033;-71
2023/03/26 13:01:32;;;;;;;3.33;0.52;;;10.90;99.90;;;;;;5049903;28;20028;-71
2023/03/26 13:04:09;;;;;;;8.02;0.90;;;10.80;99.90;;;;;;5033230;28;20593;-72
2023/03/26 13:06:34;;;;;;;1.88;0.70;;;10.60;99.90;;;;;;5023445;28;20033;-72
2023/03/26 13:09:24;;;;;;;2.65;0.73;;;10.20;99.90;;;;;;5025850;28;20033;-72
2023/03/26 13:11:52;;;;;;;5.32;1.35;;;9.90;99.90;;;;;;5030389;28;20043;-72
2023/03/26 13:14:56;;;;;;;1.50;0.50;;;9.70;99.90;;;;;;5029081;28;20028;-72
2023/03/26 13:17:38;;;;;;;3.05;0.70;;;9.60;99.90;;;;;;5024987;28;20537;-72
2023/03/26 13:20:38;;;;;;;3.45;0.70;;;9.40;99.90;;;;;;5032388;28;20033;-72
2023/03/26 13:23:22;;;;;;;3.75;0.70;;;9.40;99.90;;;;;;5011163;28;20050;-72
2023/03/26 13:26:12;;;;;;;4.97;1.05;;;9.90;99.90;;;;;;5030583;28;20037;-72
2023/03/26 13:28:51;;;;;;;4.03;0.77;;;10.50;99.90;;;;;;5019357;28;20758;-72
2023/03/26 13:31:35;;;;;;;2.33;0.70;;;10.80;99.90;;;;;;5033212;28;20295;-72
2023/03/26 13:34:16;;;;;;;3.72;0.82;;;11.20;99.90;;;;;;5043391;28;20032;-72